sensor_id;sensor_type;location;lat;lon;timestamp;P1;durP1;ratioP1;P2;durP2;ratioP2
46675;SDS011;32412;51.478;5.694;2022-09-01T00:01:13;3.83;;;1.10;;
46675;SDS011;32412;51.478;5.694;2022-09-01T00:03:45;1.27;;;1.10;;
46675;SDS011;32412;51.478;5.694;2022-09-01T00:06:17;2.72;;;1.00;;
46675;SDS011;32412;51.478;5.694;2022-09-01T00:08:47;1.52;;;0.98;;
46675;SDS011;32412;51.478;5.694;2022-09-01T00:11:17;1.95;;;0.90;;
46675;SDS011;32412;51.478;5.694;2022-09-01T00:13:43;4.80;;;1.05;;
46675;SDS011;32412;51.478;5.694;2022-09-01T00:16:09;2.95;;;1.17;;
46675;SDS011;32412;51.478;5.694;2022-09-01T00:18:38;3.25;;;1.10;;
46675;SDS011;32412;51.478;5.694;2022-09-01T00:21:06;5.85;;;1.20;;
46675;SDS011;32412;51.478;5.694;2022-09-01T00:23:33;2.95;;;0.80;;
46675;SDS011;32412;51.478;5.694;2022-09-01T00:25:58;3.65;;;1.15;;
46675;SDS011;32412;51.478;5.694;2022-09-01T00:28:24;2.28;;;0.90;;
46675;SDS011;32412;51.478;5.694;2022-09-01T00:30:49;6.82;;;1.15;;
46675;SDS011;32412;51.478;5.694;2022-09-01T00:33:15;2.65;;;1.10;;
46675;SDS011;32412;51.478;5.694;2022-09-01T00:35:41;3.28;;;1.10;;
46675;SDS011;32412;51.478;5.694;2022-09-01T00:38:07;3.88;;;1.20;;
46675;SDS011;32412;51.478;5.694;2022-09-01T00:40:32;4.38;;;1.00;;
46675;SDS011;32412;51.478;5.694;2022-09-01T00:42:58;3.95;;;1.17;;
46675;SDS011;32412;51.478;5.694;2022-09-01T00:45:24;3.45;;;1.20;;
46675;SDS011;32412;51.478;5.694;2022-09-01T00:47:50;1.85;;;1.10;;
46675;SDS011;32412;51.478;5.694;2022-09-01T00:50:16;2.78;;;1.02;;
46675;SDS011;32412;51.478;5.694;2022-09-01T00:52:52;2.67;;;1.08;;
46675;SDS011;32412;51.478;5.694;2022-09-01T00:55:37;4.32;;;1.13;;
46675;SDS011;32412;51.478;5.694;2022-09-01T00:58:04;2.53;;;0.93;;
46675;SDS011;32412;51.478;5.694;2022-09-01T01:00:35;2.20;;;1.20;;
46675;SDS011;32412;51.478;5.694;2022-09-01T01:03:14;4.05;;;1.30;;
46675;SDS011;32412;51.478;5.694;2022-09-01T01:05:41;2.72;;;1.10;;
46675;SDS011;32412;51.478;5.694;2022-09-01T01:08:18;2.42;;;1.02;;
46675;SDS011;32412;51.478;5.694;2022-09-01T01:10:57;2.88;;;1.10;;
46675;SDS011;32412;51.478;5.694;2022-09-01T01:13:57;2.53;;;1.13;;
46675;SDS011;32412;51.478;5.694;2022-09-01T01:16:26;2.00;;;1.25;;
46675;SDS011;32412;51.478;5.694;2022-09-01T01:18:53;6.18;;;1.40;;
46675;SDS011;32412;51.478;5.694;2022-09-01T01:26:56;2.38;;;1.40;;
46675;SDS011;32412;51.478;5.694;2022-09-01T01:29:23;4.95;;;1.27;;
46675;SDS011;32412;51.478;5.694;2022-09-01T01:31:56;1.25;;;1.15;;
46675;SDS011;32412;51.478;5.694;2022-09-01T01:34:22;4.72;;;1.40;;
46675;SDS011;32412;51.478;5.694;2022-09-01T01:36:48;2.90;;;1.27;;
46675;SDS011;32412;51.478;5.694;2022-09-01T01:39:16;4.70;;;1.63;;
46675;SDS011;32412;51.478;5.694;2022-09-01T01:41:45;2.90;;;1.20;;
46675;SDS011;32412;51.478;5.694;2022-09-01T01:44:13;3.03;;;1.30;;
46675;SDS011;32412;51.478;5.694;2022-09-01T01:46:42;2.00;;;1.17;;
46675;SDS011;32412;51.478;5.694;2022-09-01T01:49:10;4.93;;;1.23;;
46675;SDS011;32412;51.478;5.694;2022-09-01T01:51:38;3.00;;;1.42;;
46675;SDS011;32412;51.478;5.694;2022-09-01T01:54:04;1.75;;;1.17;;
46675;SDS011;32412;51.478;5.694;2022-09-01T01:56:31;4.22;;;1.45;;
46675;SDS011;32412;51.478;5.694;2022-09-01T01:58:58;5.45;;;1.55;;
46675;SDS011;32412;51.478;5.694;2022-09-01T02:01:26;1.50;;;1.40;;
46675;SDS011;32412;51.478;5.694;2022-09-01T02:03:56;2.20;;;1.30;;
46675;SDS011;32412;51.478;5.694;2022-09-01T02:06:23;7.15;;;1.75;;
46675;SDS011;32412;51.478;5.694;2022-09-01T02:08:51;2.83;;;1.50;;
46675;SDS011;32412;51.478;5.694;2022-09-01T02:11:20;1.88;;;1.33;;
46675;SDS011;32412;51.478;5.694;2022-09-01T02:13:46;2.70;;;1.30;;
46675;SDS011;32412;51.478;5.694;2022-09-01T02:16:14;2.78;;;1.67;;
46675;SDS011;32412;51.478;5.694;2022-09-01T02:18:42;2.63;;;1.38;;
46675;SDS011;32412;51.478;5.694;2022-09-01T02:21:12;2.97;;;1.42;;
46675;SDS011;32412;51.478;5.694;2022-09-01T02:23:43;3.55;;;1.73;;
46675;SDS011;32412;51.478;5.694;2022-09-01T02:26:09;5.10;;;2.25;;
46675;SDS011;32412;51.478;5.694;2022-09-01T02:28:36;3.95;;;1.60;;
46675;SDS011;32412;51.478;5.694;2022-09-01T02:31:07;5.05;;;1.30;;
46675;SDS011;32412;51.478;5.694;2022-09-01T02:33:34;5.07;;;1.75;;
46675;SDS011;32412;51.478;5.694;2022-09-01T02:36:01;7.88;;;1.63;;
46675;SDS011;32412;51.478;5.694;2022-09-01T02:38:33;2.33;;;1.60;;
46675;SDS011;32412;51.478;5.694;2022-09-01T02:40:59;4.28;;;1.52;;
46675;SDS011;32412;51.478;5.694;2022-09-01T02:43:26;6.50;;;1.55;;
46675;SDS011;32412;51.478;5.694;2022-09-01T02:45:54;3.53;;;1.80;;
46675;SDS011;32412;51.478;5.694;2022-09-01T02:48:24;3.13;;;1.70;;
46675;SDS011;32412;51.478;5.694;2022-09-01T02:50:57;5.00;;;2.35;;
46675;SDS011;32412;51.478;5.694;2022-09-01T02:53:24;3.33;;;1.92;;
46675;SDS011;32412;51.478;5.694;2022-09-01T02:55:50;5.05;;;1.63;;
46675;SDS011;32412;51.478;5.694;2022-09-01T02:58:15;4.15;;;1.52;;
46675;SDS011;32412;51.478;5.694;2022-09-01T03:00:44;3.20;;;1.70;;
46675;SDS011;32412;51.478;5.694;2022-09-01T03:03:11;2.00;;;1.80;;
46675;SDS011;32412;51.478;5.694;2022-09-01T03:05:37;3.58;;;1.60;;
46675;SDS011;32412;51.478;5.694;2022-09-01T03:08:07;6.47;;;1.80;;
46675;SDS011;32412;51.478;5.694;2022-09-01T03:10:39;3.38;;;1.80;;
46675;SDS011;32412;51.478;5.694;2022-09-01T03:13:13;3.75;;;1.70;;
46675;SDS011;32412;51.478;5.694;2022-09-01T03:15:41;3.35;;;1.77;;
46675;SDS011;32412;51.478;5.694;2022-09-01T03:18:08;3.75;;;2.00;;
46675;SDS011;32412;51.478;5.694;2022-09-01T03:20:37;2.72;;;1.80;;
46675;SDS011;32412;51.478;5.694;2022-09-01T03:23:08;4.55;;;1.80;;
46675;SDS011;32412;51.478;5.694;2022-09-01T03:25:36;3.42;;;1.70;;
46675;SDS011;32412;51.478;5.694;2022-09-01T03:28:03;5.20;;;1.85;;
46675;SDS011;32412;51.478;5.694;2022-09-01T03:30:30;3.10;;;1.70;;
46675;SDS011;32412;51.478;5.694;2022-09-01T03:32:58;6.43;;;1.92;;
46675;SDS011;32412;51.478;5.694;2022-09-01T03:35:26;2.90;;;2.10;;
46675;SDS011;32412;51.478;5.694;2022-09-01T03:37:56;3.45;;;2.05;;
46675;SDS011;32412;51.478;5.694;2022-09-01T03:40:24;2.42;;;1.80;;
46675;SDS011;32412;51.478;5.694;2022-09-01T03:43:01;4.55;;;1.85;;
46675;SDS011;32412;51.478;5.694;2022-09-01T03:45:28;2.20;;;1.63;;
46675;SDS011;32412;51.478;5.694;2022-09-01T03:47:57;3.08;;;2.03;;
46675;SDS011;32412;51.478;5.694;2022-09-01T03:50:23;5.30;;;2.17;;
46675;SDS011;32412;51.478;5.694;2022-09-01T03:52:51;2.55;;;1.90;;
46675;SDS011;32412;51.478;5.694;2022-09-01T03:55:19;3.70;;;1.80;;
46675;SDS011;32412;51.478;5.694;2022-09-01T03:57:51;4.32;;;1.83;;
46675;SDS011;32412;51.478;5.694;2022-09-01T04:00:18;2.97;;;2.42;;
46675;SDS011;32412;51.478;5.694;2022-09-01T04:02:47;4.30;;;1.83;;
46675;SDS011;32412;51.478;5.694;2022-09-01T04:05:16;2.33;;;2.10;;
46675;SDS011;32412;51.478;5.694;2022-09-01T04:07:45;5.80;;;1.98;;
46675;SDS011;32412;51.478;5.694;2022-09-01T04:10:13;5.45;;;2.53;;
46675;SDS011;32412;51.478;5.694;2022-09-01T04:12:39;3.97;;;2.63;;
46675;SDS011;32412;51.478;5.694;2022-09-01T04:15:05;5.30;;;2.00;;
46675;SDS011;32412;51.478;5.694;2022-09-01T04:17:32;8.10;;;2.33;;
46675;SDS011;32412;51.478;5.694;2022-09-01T04:20:16;5.22;;;2.17;;
46675;SDS011;32412;51.478;5.694;2022-09-01T04:22:44;4.07;;;1.88;;
46675;SDS011;32412;51.478;5.694;2022-09-01T04:25:11;5.63;;;2.30;;
46675;SDS011;32412;51.478;5.694;2022-09-01T04:27:38;4.22;;;2.20;;
46675;SDS011;32412;51.478;5.694;2022-09-01T04:30:05;2.85;;;2.00;;
46675;SDS011;32412;51.478;5.694;2022-09-01T04:32:35;3.03;;;1.92;;
46675;SDS011;32412;51.478;5.694;2022-09-01T04:35:04;4.88;;;1.95;;
46675;SDS011;32412;51.478;5.694;2022-09-01T04:37:31;6.13;;;2.75;;
46675;SDS011;32412;51.478;5.694;2022-09-01T04:40:00;2.58;;;1.85;;
46675;SDS011;32412;51.478;5.694;2022-09-01T04:42:27;2.78;;;1.80;;
46675;SDS011;32412;51.478;5.694;2022-09-01T04:44:54;3.85;;;2.28;;
46675;SDS011;32412;51.478;5.694;2022-09-01T04:47:21;4.00;;;2.15;;
46675;SDS011;32412;51.478;5.694;2022-09-01T04:49:54;4.22;;;2.28;;
46675;SDS011;32412;51.478;5.694;2022-09-01T04:52:23;2.85;;;2.17;;
46675;SDS011;32412;51.478;5.694;2022-09-01T04:54:49;2.05;;;1.80;;
46675;SDS011;32412;51.478;5.694;2022-09-01T04:57:14;2.78;;;2.05;;
46675;SDS011;32412;51.478;5.694;2022-09-01T04:59:40;3.60;;;2.00;;
46675;SDS011;32412;51.478;5.694;2022-09-01T05:02:07;3.60;;;2.28;;
46675;SDS011;32412;51.478;5.694;2022-09-01T05:04:33;2.60;;;1.63;;
46675;SDS011;32412;51.478;5.694;2022-09-01T05:07:00;2.55;;;2.03;;
46675;SDS011;32412;51.478;5.694;2022-09-01T05:09:27;5.85;;;1.98;;
46675;SDS011;32412;51.478;5.694;2022-09-01T05:11:55;5.82;;;1.98;;
46675;SDS011;32412;51.478;5.694;2022-09-01T05:14:23;3.35;;;2.20;;
46675;SDS011;32412;51.478;5.694;2022-09-01T05:16:50;2.70;;;1.90;;
46675;SDS011;32412;51.478;5.694;2022-09-01T05:19:22;3.78;;;2.28;;
46675;SDS011;32412;51.478;5.694;2022-09-01T05:21:52;2.75;;;1.90;;
46675;SDS011;32412;51.478;5.694;2022-09-01T05:24:21;5.18;;;2.30;;
46675;SDS011;32412;51.478;5.694;2022-09-01T05:26:47;4.85;;;2.25;;
46675;SDS011;32412;51.478;5.694;2022-09-01T05:29:14;2.40;;;1.90;;
46675;SDS011;32412;51.478;5.694;2022-09-01T05:31:41;6.82;;;2.20;;
46675;SDS011;32412;51.478;5.694;2022-09-01T05:34:09;5.97;;;2.05;;
46675;SDS011;32412;51.478;5.694;2022-09-01T05:36:37;3.97;;;1.88;;
46675;SDS011;32412;51.478;5.694;2022-09-01T05:39:06;2.85;;;2.10;;
46675;SDS011;32412;51.478;5.694;2022-09-01T05:41:31;6.05;;;2.45;;
46675;SDS011;32412;51.478;5.694;2022-09-01T05:44:00;3.35;;;1.77;;
46675;SDS011;32412;51.478;5.694;2022-09-01T05:46:28;3.55;;;2.38;;
46675;SDS011;32412;51.478;5.694;2022-09-01T05:48:54;6.03;;;2.05;;
46675;SDS011;32412;51.478;5.694;2022-09-01T05:51:22;14.10;;;2.85;;
46675;SDS011;32412;51.478;5.694;2022-09-01T05:53:54;5.18;;;2.40;;
46675;SDS011;32412;51.478;5.694;2022-09-01T05:56:23;4.35;;;2.20;;
46675;SDS011;32412;51.478;5.694;2022-09-01T05:58:50;3.75;;;2.38;;
46675;SDS011;32412;51.478;5.694;2022-09-01T06:01:17;5.88;;;2.28;;
46675;SDS011;32412;51.478;5.694;2022-09-01T06:03:52;7.05;;;2.33;;
46675;SDS011;32412;51.478;5.694;2022-09-01T06:06:24;3.05;;;2.13;;
46675;SDS011;32412;51.478;5.694;2022-09-01T06:08:52;4.75;;;2.03;;
46675;SDS011;32412;51.478;5.694;2022-09-01T06:11:22;7.90;;;2.42;;
46675;SDS011;32412;51.478;5.694;2022-09-01T06:13:49;7.15;;;2.40;;
46675;SDS011;32412;51.478;5.694;2022-09-01T06:16:16;4.10;;;2.25;;
46675;SDS011;32412;51.478;5.694;2022-09-01T06:18:43;3.88;;;2.30;;
46675;SDS011;32412;51.478;5.694;2022-09-01T06:21:10;6.65;;;2.70;;
46675;SDS011;32412;51.478;5.694;2022-09-01T06:23:41;4.93;;;1.80;;
46675;SDS011;32412;51.478;5.694;2022-09-01T06:26:18;3.10;;;1.83;;
46675;SDS011;32412;51.478;5.694;2022-09-01T06:28:47;5.82;;;1.98;;
46675;SDS011;32412;51.478;5.694;2022-09-01T06:31:22;5.10;;;1.85;;
46675;SDS011;32412;51.478;5.694;2022-09-01T06:33:50;5.68;;;2.10;;
46675;SDS011;32412;51.478;5.694;2022-09-01T06:36:21;3.92;;;1.75;;
46675;SDS011;32412;51.478;5.694;2022-09-01T06:38:48;4.70;;;1.75;;
46675;SDS011;32412;51.478;5.694;2022-09-01T06:41:15;2.95;;;1.70;;
46675;SDS011;32412;51.478;5.694;2022-09-01T06:43:43;5.85;;;2.10;;
46675;SDS011;32412;51.478;5.694;2022-09-01T06:46:13;6.22;;;2.42;;
46675;SDS011;32412;51.478;5.694;2022-09-01T06:48:40;6.22;;;2.22;;
46675;SDS011;32412;51.478;5.694;2022-09-01T06:51:11;9.13;;;2.50;;
46675;SDS011;32412;51.478;5.694;2022-09-01T06:53:38;6.35;;;2.08;;
46675;SDS011;32412;51.478;5.694;2022-09-01T06:56:05;4.93;;;2.88;;
46675;SDS011;32412;51.478;5.694;2022-09-01T06:58:32;6.78;;;2.60;;
46675;SDS011;32412;51.478;5.694;2022-09-01T07:01:04;6.15;;;2.60;;
46675;SDS011;32412;51.478;5.694;2022-09-01T07:03:31;15.48;;;2.97;;
46675;SDS011;32412;51.478;5.694;2022-09-01T07:05:58;8.43;;;2.80;;
46675;SDS011;32412;51.478;5.694;2022-09-01T07:08:24;6.85;;;2.75;;
46675;SDS011;32412;51.478;5.694;2022-09-01T07:10:50;6.70;;;2.72;;
46675;SDS011;32412;51.478;5.694;2022-09-01T07:13:20;5.70;;;2.58;;
46675;SDS011;32412;51.478;5.694;2022-09-01T07:15:52;9.02;;;2.78;;
46675;SDS011;32412;51.478;5.694;2022-09-01T07:18:20;10.35;;;2.50;;
46675;SDS011;32412;51.478;5.694;2022-09-01T07:20:49;4.65;;;2.40;;
46675;SDS011;32412;51.478;5.694;2022-09-01T07:23:17;11.40;;;2.72;;
46675;SDS011;32412;51.478;5.694;2022-09-01T07:25:48;12.45;;;2.83;;
46675;SDS011;32412;51.478;5.694;2022-09-01T07:28:19;7.35;;;2.38;;
46675;SDS011;32412;51.478;5.694;2022-09-01T07:30:48;7.65;;;2.72;;
46675;SDS011;32412;51.478;5.694;2022-09-01T07:33:18;10.48;;;2.33;;
46675;SDS011;32412;51.478;5.694;2022-09-01T07:35:47;10.82;;;2.45;;
46675;SDS011;32412;51.478;5.694;2022-09-01T07:38:13;4.35;;;2.38;;
46675;SDS011;32412;51.478;5.694;2022-09-01T07:40:43;7.10;;;2.50;;
46675;SDS011;32412;51.478;5.694;2022-09-01T07:43:14;3.38;;;2.13;;
46675;SDS011;32412;51.478;5.694;2022-09-01T07:45:46;7.95;;;2.70;;
46675;SDS011;32412;51.478;5.694;2022-09-01T07:48:15;9.30;;;2.85;;
46675;SDS011;32412;51.478;5.694;2022-09-01T07:50:46;6.07;;;2.60;;
46675;SDS011;32412;51.478;5.694;2022-09-01T07:53:17;5.25;;;2.60;;
46675;SDS011;32412;51.478;5.694;2022-09-01T07:55:57;8.80;;;2.60;;
46675;SDS011;32412;51.478;5.694;2022-09-01T07:58:26;9.98;;;2.63;;
46675;SDS011;32412;51.478;5.694;2022-09-01T08:00:54;7.18;;;2.60;;
46675;SDS011;32412;51.478;5.694;2022-09-01T08:03:22;10.40;;;2.60;;
46675;SDS011;32412;51.478;5.694;2022-09-01T08:05:50;6.88;;;2.42;;
46675;SDS011;32412;51.478;5.694;2022-09-01T08:08:21;7.13;;;2.50;;
46675;SDS011;32412;51.478;5.694;2022-09-01T08:10:48;9.02;;;2.70;;
46675;SDS011;32412;51.478;5.694;2022-09-01T08:13:14;5.05;;;2.50;;
46675;SDS011;32412;51.478;5.694;2022-09-01T08:15:41;5.60;;;2.20;;
46675;SDS011;32412;51.478;5.694;2022-09-01T08:18:08;5.72;;;2.53;;
46675;SDS011;32412;51.478;5.694;2022-09-01T08:20:34;4.95;;;2.53;;
46675;SDS011;32412;51.478;5.694;2022-09-01T08:23:04;8.40;;;2.30;;
46675;SDS011;32412;51.478;5.694;2022-09-01T08:25:31;9.27;;;2.90;;
46675;SDS011;32412;51.478;5.694;2022-09-01T08:28:00;4.00;;;2.47;;
46675;SDS011;32412;51.478;5.694;2022-09-01T08:30:26;6.00;;;2.50;;
46675;SDS011;32412;51.478;5.694;2022-09-01T08:32:53;5.72;;;2.47;;
46675;SDS011;32412;51.478;5.694;2022-09-01T08:35:19;8.32;;;2.65;;
46675;SDS011;32412;51.478;5.694;2022-09-01T08:37:45;6.63;;;2.20;;
46675;SDS011;32412;51.478;5.694;2022-09-01T08:40:12;7.15;;;2.55;;
46675;SDS011;32412;51.478;5.694;2022-09-01T08:45:42;11.20;;;2.97;;
46675;SDS011;32412;51.478;5.694;2022-09-01T08:50:43;4.68;;;2.17;;
46675;SDS011;32412;51.478;5.694;2022-09-01T08:53:24;5.88;;;2.55;;
46675;SDS011;32412;51.478;5.694;2022-09-01T08:55:56;4.47;;;2.20;;
46675;SDS011;32412;51.478;5.694;2022-09-01T08:58:25;4.95;;;2.35;;
46675;SDS011;32412;51.478;5.694;2022-09-01T09:00:55;5.28;;;2.10;;
46675;SDS011;32412;51.478;5.694;2022-09-01T09:03:51;10.18;;;2.28;;
46675;SDS011;32412;51.478;5.694;2022-09-01T09:09:07;6.75;;;2.30;;
46675;SDS011;32412;51.478;5.694;2022-09-01T09:11:52;3.90;;;2.17;;
46675;SDS011;32412;51.478;5.694;2022-09-01T09:17:11;6.55;;;2.00;;
46675;SDS011;32412;51.478;5.694;2022-09-01T09:19:42;6.97;;;1.95;;
46675;SDS011;32412;51.478;5.694;2022-09-01T09:22:13;5.22;;;1.83;;
46675;SDS011;32412;51.478;5.694;2022-09-01T09:27:33;5.97;;;1.73;;
46675;SDS011;32412;51.478;5.694;2022-09-01T09:30:11;4.28;;;1.70;;
46675;SDS011;32412;51.478;5.694;2022-09-01T09:35:16;5.90;;;2.08;;
46675;SDS011;32412;51.478;5.694;2022-09-01T09:37:54;2.38;;;1.35;;
46675;SDS011;32412;51.478;5.694;2022-09-01T09:40:24;5.43;;;1.50;;
46675;SDS011;32412;51.478;5.694;2022-09-01T09:47:52;2.58;;;1.80;;
46675;SDS011;32412;51.478;5.694;2022-09-01T09:53:12;8.32;;;1.67;;
46675;SDS011;32412;51.478;5.694;2022-09-01T09:56:03;7.43;;;1.50;;
46675;SDS011;32412;51.478;5.694;2022-09-01T09:58:41;5.45;;;1.20;;
46675;SDS011;32412;51.478;5.694;2022-09-01T10:03:59;2.13;;;1.00;;
46675;SDS011;32412;51.478;5.694;2022-09-01T10:06:35;3.65;;;1.10;;
46675;SDS011;32412;51.478;5.694;2022-09-01T10:09:06;5.07;;;1.05;;
46675;SDS011;32412;51.478;5.694;2022-09-01T10:11:39;3.92;;;1.00;;
46675;SDS011;32412;51.478;5.694;2022-09-01T10:14:15;1.92;;;0.88;;
46675;SDS011;32412;51.478;5.694;2022-09-01T10:16:43;1.80;;;0.90;;
46675;SDS011;32412;51.478;5.694;2022-09-01T10:19:14;3.10;;;1.00;;
46675;SDS011;32412;51.478;5.694;2022-09-01T10:21:42;1.88;;;0.80;;
46675;SDS011;32412;51.478;5.694;2022-09-01T10:24:27;1.40;;;1.00;;
46675;SDS011;32412;51.478;5.694;2022-09-01T10:27:00;3.30;;;0.90;;
46675;SDS011;32412;51.478;5.694;2022-09-01T10:29:33;3.03;;;1.13;;
46675;SDS011;32412;51.478;5.694;2022-09-01T10:32:06;2.63;;;1.17;;
46675;SDS011;32412;51.478;5.694;2022-09-01T10:34:35;4.53;;;1.10;;
46675;SDS011;32412;51.478;5.694;2022-09-01T10:37:02;1.42;;;1.00;;
46675;SDS011;32412;51.478;5.694;2022-09-01T10:39:33;1.63;;;0.80;;
46675;SDS011;32412;51.478;5.694;2022-09-01T10:42:27;1.38;;;1.02;;
46675;SDS011;32412;51.478;5.694;2022-09-01T10:44:54;4.22;;;1.20;;
46675;SDS011;32412;51.478;5.694;2022-09-01T10:47:31;2.63;;;0.95;;
46675;SDS011;32412;51.478;5.694;2022-09-01T10:50:22;1.98;;;1.10;;
46675;SDS011;32412;51.478;5.694;2022-09-01T10:52:51;4.93;;;0.90;;
46675;SDS011;32412;51.478;5.694;2022-09-01T10:55:23;4.47;;;1.10;;
46675;SDS011;32412;51.478;5.694;2022-09-01T10:57:57;3.70;;;1.00;;
46675;SDS011;32412;51.478;5.694;2022-09-01T11:10:51;1.50;;;0.80;;
46675;SDS011;32412;51.478;5.694;2022-09-01T11:13:43;2.92;;;0.80;;
46675;SDS011;32412;51.478;5.694;2022-09-01T11:18:50;1.92;;;0.73;;
46675;SDS011;32412;51.478;5.694;2022-09-01T11:21:22;2.53;;;0.77;;
46675;SDS011;32412;51.478;5.694;2022-09-01T11:26:56;3.17;;;1.08;;
46675;SDS011;32412;51.478;5.694;2022-09-01T11:32:23;2.13;;;0.90;;
46675;SDS011;32412;51.478;5.694;2022-09-01T11:35:05;5.50;;;1.02;;
46675;SDS011;32412;51.478;5.694;2022-09-01T11:37:46;2.95;;;1.10;;
46675;SDS011;32412;51.478;5.694;2022-09-01T11:40:17;0.80;;;0.80;;
46675;SDS011;32412;51.478;5.694;2022-09-01T11:42:51;2.28;;;1.00;;
46675;SDS011;32412;51.478;5.694;2022-09-01T11:45:22;3.17;;;0.80;;
46675;SDS011;32412;51.478;5.694;2022-09-01T11:47:53;1.55;;;0.90;;
46675;SDS011;32412;51.478;5.694;2022-09-01T11:50:26;1.70;;;0.80;;
46675;SDS011;32412;51.478;5.694;2022-09-01T11:55:43;0.95;;;0.70;;
46675;SDS011;32412;51.478;5.694;2022-09-01T11:58:11;1.88;;;0.80;;
46675;SDS011;32412;51.478;5.694;2022-09-01T12:00:55;4.15;;;1.00;;
46675;SDS011;32412;51.478;5.694;2022-09-01T12:03:35;1.88;;;1.00;;
46675;SDS011;32412;51.478;5.694;2022-09-01T12:06:01;0.80;;;0.80;;
46675;SDS011;32412;51.478;5.694;2022-09-01T12:08:37;2.08;;;0.60;;
46675;SDS011;32412;51.478;5.694;2022-09-01T12:11:19;1.98;;;1.00;;
46675;SDS011;32412;51.478;5.694;2022-09-01T12:16:26;4.00;;;0.90;;
46675;SDS011;32412;51.478;5.694;2022-09-01T12:18:54;5.72;;;1.30;;
46675;SDS011;32412;51.478;5.694;2022-09-01T12:21:27;4.95;;;0.80;;
46675;SDS011;32412;51.478;5.694;2022-09-01T12:24:16;1.92;;;0.90;;
46675;SDS011;32412;51.478;5.694;2022-09-01T12:26:48;1.23;;;0.73;;
46675;SDS011;32412;51.478;5.694;2022-09-01T12:29:18;1.60;;;0.70;;
46675;SDS011;32412;51.478;5.694;2022-09-01T12:31:47;1.35;;;0.88;;
46675;SDS011;32412;51.478;5.694;2022-09-01T12:37:02;1.85;;;0.60;;
46675;SDS011;32412;51.478;5.694;2022-09-01T12:39:45;2.85;;;0.80;;
46675;SDS011;32412;51.478;5.694;2022-09-01T12:44:56;3.80;;;1.00;;
46675;SDS011;32412;51.478;5.694;2022-09-01T12:52:57;2.05;;;0.82;;
46675;SDS011;32412;51.478;5.694;2022-09-01T12:55:30;3.70;;;1.05;;
46675;SDS011;32412;51.478;5.694;2022-09-01T12:58:27;0.63;;;0.63;;
46675;SDS011;32412;51.478;5.694;2022-09-01T13:00:58;2.47;;;0.85;;
46675;SDS011;32412;51.478;5.694;2022-09-01T13:03:30;5.53;;;1.10;;
46675;SDS011;32412;51.478;5.694;2022-09-01T13:06:04;1.52;;;0.77;;
46675;SDS011;32412;51.478;5.694;2022-09-01T13:08:31;4.25;;;0.80;;
46675;SDS011;32412;51.478;5.694;2022-09-01T13:11:02;6.53;;;0.90;;
46675;SDS011;32412;51.478;5.694;2022-09-01T13:13:30;3.65;;;1.10;;
46675;SDS011;32412;51.478;5.694;2022-09-01T13:15:59;5.13;;;2.17;;
46675;SDS011;32412;51.478;5.694;2022-09-01T13:18:28;5.15;;;2.00;;
46675;SDS011;32412;51.478;5.694;2022-09-01T13:20:55;4.88;;;1.33;;
46675;SDS011;32412;51.478;5.694;2022-09-01T13:23:21;4.57;;;1.70;;
46675;SDS011;32412;51.478;5.694;2022-09-01T13:25:48;4.40;;;1.80;;
46675;SDS011;32412;51.478;5.694;2022-09-01T13:28:15;4.53;;;2.33;;
46675;SDS011;32412;51.478;5.694;2022-09-01T13:30:46;5.97;;;1.90;;
46675;SDS011;32412;51.478;5.694;2022-09-01T13:33:17;3.97;;;1.20;;
46675;SDS011;32412;51.478;5.694;2022-09-01T13:35:43;5.60;;;1.30;;
46675;SDS011;32412;51.478;5.694;2022-09-01T13:38:08;5.53;;;1.73;;
46675;SDS011;32412;51.478;5.694;2022-09-01T13:40:34;5.05;;;1.20;;
46675;SDS011;32412;51.478;5.694;2022-09-01T13:43:00;4.63;;;1.00;;
46675;SDS011;32412;51.478;5.694;2022-09-01T13:45:28;2.92;;;1.13;;
46675;SDS011;32412;51.478;5.694;2022-09-01T13:47:54;2.72;;;1.17;;
46675;SDS011;32412;51.478;5.694;2022-09-01T13:50:20;1.80;;;1.00;;
46675;SDS011;32412;51.478;5.694;2022-09-01T13:52:51;3.50;;;0.88;;
46675;SDS011;32412;51.478;5.694;2022-09-01T13:55:22;4.00;;;1.02;;
46675;SDS011;32412;51.478;5.694;2022-09-01T13:57:53;4.00;;;1.20;;
46675;SDS011;32412;51.478;5.694;2022-09-01T14:00:24;4.20;;;1.20;;
46675;SDS011;32412;51.478;5.694;2022-09-01T14:02:54;1.98;;;1.08;;
46675;SDS011;32412;51.478;5.694;2022-09-01T14:05:26;2.90;;;1.20;;
46675;SDS011;32412;51.478;5.694;2022-09-01T14:07:54;5.40;;;1.50;;
46675;SDS011;32412;51.478;5.694;2022-09-01T14:10:21;9.30;;;5.22;;
46675;SDS011;32412;51.478;5.694;2022-09-01T14:12:48;13.35;;;6.53;;
46675;SDS011;32412;51.478;5.694;2022-09-01T14:15:18;12.55;;;5.97;;
46675;SDS011;32412;51.478;5.694;2022-09-01T14:17:45;9.38;;;3.15;;
46675;SDS011;32412;51.478;5.694;2022-09-01T14:20:14;5.95;;;1.90;;
46675;SDS011;32412;51.478;5.694;2022-09-01T14:22:42;3.60;;;1.35;;
46675;SDS011;32412;51.478;5.694;2022-09-01T14:25:09;4.30;;;1.05;;
46675;SDS011;32412;51.478;5.694;2022-09-01T14:27:36;2.90;;;1.40;;
46675;SDS011;32412;51.478;5.694;2022-09-01T14:30:06;1.90;;;1.00;;
46675;SDS011;32412;51.478;5.694;2022-09-01T14:32:34;3.65;;;1.40;;
46675;SDS011;32412;51.478;5.694;2022-09-01T14:35:00;3.88;;;1.20;;
46675;SDS011;32412;51.478;5.694;2022-09-01T14:37:27;4.07;;;1.48;;
46675;SDS011;32412;51.478;5.694;2022-09-01T14:39:53;2.78;;;1.10;;
46675;SDS011;32412;51.478;5.694;2022-09-01T14:42:22;4.75;;;1.23;;
46675;SDS011;32412;51.478;5.694;2022-09-01T14:44:50;5.65;;;1.30;;
46675;SDS011;32412;51.478;5.694;2022-09-01T14:47:16;5.57;;;1.60;;
46675;SDS011;32412;51.478;5.694;2022-09-01T14:49:42;6.97;;;3.40;;
46675;SDS011;32412;51.478;5.694;2022-09-01T14:52:08;8.95;;;4.72;;
46675;SDS011;32412;51.478;5.694;2022-09-01T14:54:35;6.07;;;3.45;;
46675;SDS011;32412;51.478;5.694;2022-09-01T14:57:03;5.63;;;2.05;;
46675;SDS011;32412;51.478;5.694;2022-09-01T14:59:33;4.10;;;2.05;;
46675;SDS011;32412;51.478;5.694;2022-09-01T15:02:01;3.53;;;1.52;;
46675;SDS011;32412;51.478;5.694;2022-09-01T15:04:30;2.45;;;1.10;;
46675;SDS011;32412;51.478;5.694;2022-09-01T15:06:56;3.53;;;1.20;;
46675;SDS011;32412;51.478;5.694;2022-09-01T15:09:24;5.32;;;1.30;;
46675;SDS011;32412;51.478;5.694;2022-09-01T15:11:53;5.28;;;1.42;;
46675;SDS011;32412;51.478;5.694;2022-09-01T15:14:22;3.25;;;1.20;;
46675;SDS011;32412;51.478;5.694;2022-09-01T15:16:48;3.75;;;1.40;;
46675;SDS011;32412;51.478;5.694;2022-09-01T15:19:13;7.07;;;1.58;;
46675;SDS011;32412;51.478;5.694;2022-09-01T15:21:40;3.58;;;1.23;;
46675;SDS011;32412;51.478;5.694;2022-09-01T15:24:10;2.45;;;1.30;;
46675;SDS011;32412;51.478;5.694;2022-09-01T15:26:37;2.38;;;1.17;;
46675;SDS011;32412;51.478;5.694;2022-09-01T15:29:07;4.25;;;1.45;;
46675;SDS011;32412;51.478;5.694;2022-09-01T15:31:37;1.60;;;0.95;;
46675;SDS011;32412;51.478;5.694;2022-09-01T15:34:03;3.97;;;1.60;;
46675;SDS011;32412;51.478;5.694;2022-09-01T15:36:33;5.75;;;1.48;;
46675;SDS011;32412;51.478;5.694;2022-09-01T15:39:07;2.03;;;1.42;;
46675;SDS011;32412;51.478;5.694;2022-09-01T15:41:41;5.03;;;1.20;;
46675;SDS011;32412;51.478;5.694;2022-09-01T15:44:13;1.92;;;1.42;;
46675;SDS011;32412;51.478;5.694;2022-09-01T15:46:47;1.98;;;1.10;;
46675;SDS011;32412;51.478;5.694;2022-09-01T15:49:15;4.80;;;1.33;;
46675;SDS011;32412;51.478;5.694;2022-09-01T15:51:44;1.65;;;1.20;;
46675;SDS011;32412;51.478;5.694;2022-09-01T15:54:16;3.17;;;1.38;;
46675;SDS011;32412;51.478;5.694;2022-09-01T15:56:43;3.92;;;1.60;;
46675;SDS011;32412;51.478;5.694;2022-09-01T15:59:14;6.20;;;1.77;;
46675;SDS011;32412;51.478;5.694;2022-09-01T16:01:41;5.57;;;1.27;;
46675;SDS011;32412;51.478;5.694;2022-09-01T16:04:11;2.20;;;0.95;;
46675;SDS011;32412;51.478;5.694;2022-09-01T16:06:41;4.13;;;1.40;;
46675;SDS011;32412;51.478;5.694;2022-09-01T16:09:10;3.55;;;1.08;;
46675;SDS011;32412;51.478;5.694;2022-09-01T16:11:38;2.78;;;1.23;;